Time;durP1;ratioP1;P1;durP2;ratioP2;P2;SDS_P1;SDS_P2;PMS_P1;PMS_P2;Temp;Humidity;BMP_temperature;BMP_pressure;BME280_temperature;BME280_humidity;BME280_pressure;Samples;Min_cycle;Max_cycle;Signal;HPM_P1;HPM_P2
2023/10/22 00:01:21;;;;;;;6.63;1.70;;;10.70;99.90;;;;;;5051194;28;20261;-57
2023/10/22 00:03:51;;;;;;;5.40;1.52;;;10.70;99.90;;;;;;5051858;28;20693;-58
2023/10/22 00:06:19;;;;;;;5.38;1.70;;;10.70;99.90;;;;;;5051772;28;20220;-57
2023/10/22 00:08:47;;;;;;;8.50;1.67;;;10.60;99.90;;;;;;5052129;28;20287;-58
2023/10/22 00:11:16;;;;;;;6.03;1.83;;;10.60;99.90;;;;;;5051645;28;20229;-57
2023/10/22 00:13:44;;;;;;;9.15;1.60;;;10.60;99.90;;;;;;5051719;28;20301;-58
2023/10/22 00:16:12;;;;;;;4.95;2.20;;;10.60;99.90;;;;;;5050064;28;20206;-57
2023/10/22 00:18:40;;;;;;;7.63;1.60;;;10.60;99.90;;;;;;5050582;28;20202;-59
2023/10/22 00:21:08;;;;;;;4.93;1.63;;;10.60;99.90;;;;;;5047296;28;20276;-58
2023/10/22 00:23:36;;;;;;;7.65;1.48;;;10.60;99.90;;;;;;5051317;28;20240;-58
2023/10/22 00:26:05;;;;;;;4.93;1.77;;;10.50;99.90;;;;;;5051433;28;20210;-58
2023/10/22 00:28:36;;;;;;;5.47;1.77;;;10.50;99.90;;;;;;5051015;28;20225;-59
2023/10/22 00:31:03;;;;;;;5.03;1.77;;;10.50;99.90;;;;;;5049498;28;20597;-57
2023/10/22 00:33:31;;;;;;;7.15;1.27;;;10.40;99.90;;;;;;5050171;28;20206;-59
2023/10/22 00:35:59;;;;;;;9.25;1.40;;;10.40;99.90;;;;;;5050045;28;20259;-58
2023/10/22 00:38:27;;;;;;;5.70;1.60;;;10.40;99.90;;;;;;5050218;28;20213;-58
2023/10/22 00:40:55;;;;;;;7.82;1.83;;;10.40;99.90;;;;;;5048784;28;20312;-58
2023/10/22 00:43:23;;;;;;;8.55;1.90;;;10.40;99.90;;;;;;5048380;28;20719;-58
2023/10/22 00:45:52;;;;;;;5.13;1.30;;;10.40;99.90;;;;;;5050669;28;20213;-58
2023/10/22 00:48:21;;;;;;;5.55;1.55;;;10.30;99.90;;;;;;5051310;28;20210;-58
2023/10/22 00:50:49;;;;;;;10.20;1.75;;;10.30;99.90;;;;;;5050884;28;20234;-58
2023/10/22 00:53:17;;;;;;;9.18;1.80;;;10.30;99.90;;;;;;5051121;28;20741;-58
2023/10/22 00:55:45;;;;;;;8.20;1.88;;;10.30;99.90;;;;;;5051024;28;20237;-58
2023/10/22 00:58:13;;;;;;;4.43;1.10;;;10.20;99.90;;;;;;5050793;28;20657;-59
2023/10/22 01:00:41;;;;;;;2.92;1.30;;;10.20;99.90;;;;;;5042981;28;20315;-58
2023/10/22 01:03:10;;;;;;;4.05;1.33;;;10.20;99.90;;;;;;5050996;28;20706;-58
2023/10/22 01:05:40;;;;;;;7.93;1.75;;;10.20;99.90;;;;;;5051123;28;20210;-57
2023/10/22 01:08:08;;;;;;;3.22;1.20;;;10.20;99.90;;;;;;5050589;28;20216;-58
2023/10/22 01:10:36;;;;;;;3.53;1.55;;;10.20;99.90;;;;;;5053568;28;20268;-58
2023/10/22 01:13:05;;;;;;;7.60;1.80;;;10.20;99.90;;;;;;5054233;28;20230;-58
2023/10/22 01:15:33;;;;;;;3.53;1.35;;;10.20;99.90;;;;;;5051952;28;20206;-58
2023/10/22 01:18:01;;;;;;;6.65;1.42;;;10.10;99.90;;;;;;5053683;28;20304;-58
2023/10/22 01:20:32;;;;;;;4.85;1.38;;;10.10;99.90;;;;;;5050214;28;20225;-58
2023/10/22 01:23:01;;;;;;;6.18;1.38;;;10.10;99.90;;;;;;5054434;28;20206;-59
2023/10/22 01:25:30;;;;;;;5.38;1.73;;;10.10;99.90;;;;;;5053683;28;20680;-58
2023/10/22 01:27:59;;;;;;;2.85;1.52;;;10.20;99.90;;;;;;5054760;28;20214;-58
2023/10/22 01:30:27;;;;;;;8.75;1.85;;;10.20;99.90;;;;;;5050977;28;20711;-58
2023/10/22 01:32:54;;;;;;;3.33;1.58;;;10.20;99.90;;;;;;5044124;28;20309;-58
2023/10/22 01:35:22;;;;;;;7.38;1.65;;;10.20;99.90;;;;;;5043385;28;20209;-59
2023/10/22 01:37:50;;;;;;;4.63;1.50;;;10.20;99.90;;;;;;5047486;28;20206;-59
2023/10/22 01:40:19;;;;;;;3.70;1.42;;;10.20;99.90;;;;;;5044551;28;20680;-59
2023/10/22 01:42:48;;;;;;;5.53;1.35;;;10.20;99.90;;;;;;5053503;28;20656;-58
2023/10/22 01:45:16;;;;;;;4.47;1.23;;;10.20;99.90;;;;;;5052798;28;20288;-58
2023/10/22 01:47:44;;;;;;;3.00;1.60;;;10.20;99.90;;;;;;5047545;28;20202;-59
2023/10/22 01:50:13;;;;;;;7.95;1.38;;;10.20;99.90;;;;;;5051813;28;20325;-58
2023/10/22 01:52:41;;;;;;;7.65;1.30;;;10.20;99.90;;;;;;5052424;28;20221;-58
2023/10/22 01:55:09;;;;;;;5.50;1.40;;;10.20;99.90;;;;;;5052551;28;20285;-58
2023/10/22 01:57:37;;;;;;;3.88;1.40;;;10.20;99.90;;;;;;5052661;28;20252;-58
2023/10/22 02:00:10;;;;;;;3.20;1.17;;;10.20;99.90;;;;;;5052121;28;20617;-58
2023/10/22 02:02:39;;;;;;;9.90;1.42;;;10.10;99.90;;;;;;5052981;28;20203;-58
2023/10/22 02:05:08;;;;;;;8.57;1.30;;;10.10;99.90;;;;;;5052369;28;20216;-58
2023/10/22 02:07:37;;;;;;;3.78;1.33;;;10.10;99.90;;;;;;5052480;28;20206;-58
2023/10/22 02:10:06;;;;;;;2.80;1.15;;;10.10;99.90;;;;;;5052163;28;20289;-58
2023/10/22 02:12:34;;;;;;;4.95;1.50;;;10.10;99.90;;;;;;5050721;28;20280;-58
2023/10/22 02:15:02;;;;;;;7.22;1.50;;;10.10;99.90;;;;;;5052158;28;20293;-58
2023/10/22 02:17:31;;;;;;;6.30;1.00;;;10.20;99.90;;;;;;5051878;28;20209;-58
2023/10/22 02:19:59;;;;;;;6.63;1.20;;;10.30;99.90;;;;;;5052040;28;20210;-58
2023/10/22 02:22:27;;;;;;;3.13;1.13;;;10.30;99.90;;;;;;5050426;28;20206;-58
2023/10/22 02:24:55;;;;;;;5.18;1.55;;;10.30;99.90;;;;;;5051746;28;20642;-58
2023/10/22 02:27:22;;;;;;;5.75;1.33;;;10.40;99.90;;;;;;5052369;28;20256;-58
2023/10/22 02:29:50;;;;;;;2.92;0.88;;;10.40;99.90;;;;;;5051799;28;20413;-58
2023/10/22 02:32:18;;;;;;;5.15;1.65;;;10.40;99.90;;;;;;5050667;28;20213;-58
2023/10/22 02:34:47;;;;;;;3.83;0.95;;;10.50;99.90;;;;;;5043504;28;20259;-58
2023/10/22 02:37:15;;;;;;;2.33;0.95;;;10.50;99.90;;;;;;5051987;28;20544;-58
2023/10/22 02:39:43;;;;;;;4.22;1.00;;;10.50;99.90;;;;;;5051096;28;20731;-59
2023/10/22 02:42:11;;;;;;;4.00;1.00;;;10.60;99.90;;;;;;5051327;28;20279;-59
2023/10/22 02:44:39;;;;;;;1.10;0.90;;;10.50;99.90;;;;;;5050500;28;20277;-59
2023/10/22 02:47:07;;;;;;;3.80;0.88;;;10.50;99.90;;;;;;5051773;28;20225;-58
2023/10/22 02:49:35;;;;;;;6.57;1.17;;;10.50;99.90;;;;;;5051350;28;20221;-59
2023/10/22 02:52:05;;;;;;;4.32;1.00;;;10.60;99.90;;;;;;5050984;28;20693;-57
2023/10/22 02:54:33;;;;;;;4.50;0.80;;;10.50;99.90;;;;;;5050906;28;20225;-59
2023/10/22 02:57:01;;;;;;;6.85;1.13;;;10.50;99.90;;;;;;5051409;28;20210;-59
2023/10/22 02:59:29;;;;;;;5.28;1.20;;;10.50;99.90;;;;;;5051116;28;20205;-57
2023/10/22 03:01:57;;;;;;;2.17;0.85;;;10.50;99.90;;;;;;5050893;28;20261;-57
2023/10/22 03:04:25;;;;;;;5.78;0.88;;;10.50;99.90;;;;;;5048814;28;20304;-59
2023/10/22 03:06:53;;;;;;;5.47;0.95;;;10.50;99.90;;;;;;5050575;28;20213;-59
2023/10/22 03:09:23;;;;;;;6.90;1.00;;;10.50;99.90;;;;;;5050922;28;20241;-57
2023/10/22 03:11:51;;;;;;;3.42;0.80;;;10.40;99.90;;;;;;5046933;28;20226;-59
2023/10/22 03:14:20;;;;;;;5.57;1.02;;;10.50;99.90;;;;;;5049154;28;20257;-57
2023/10/22 03:16:48;;;;;;;3.40;0.77;;;10.40;99.90;;;;;;5042381;28;20202;-58
2023/10/22 03:19:19;;;;;;;4.30;0.93;;;10.40;99.90;;;;;;5050438;28;20588;-59
2023/10/22 03:21:47;;;;;;;5.57;1.02;;;10.40;99.90;;;;;;5049859;28;20222;-58
2023/10/22 03:24:17;;;;;;;2.55;0.90;;;10.40;99.90;;;;;;5049272;28;20204;-58
2023/10/22 03:26:46;;;;;;;1.70;0.73;;;10.40;99.90;;;;;;5049921;28;20208;-58
2023/10/22 03:29:14;;;;;;;3.35;0.90;;;10.40;99.90;;;;;;5049630;28;20213;-58
2023/10/22 03:31:42;;;;;;;7.20;0.93;;;10.40;99.90;;;;;;5049764;28;20230;-58
2023/10/22 03:34:11;;;;;;;2.95;0.82;;;10.40;99.90;;;;;;5050031;28;20229;-58
2023/10/22 03:36:40;;;;;;;4.65;0.80;;;10.40;99.90;;;;;;5048536;28;20198;-58
2023/10/22 03:39:08;;;;;;;4.07;0.70;;;10.40;99.90;;;;;;5050131;28;20251;-58
2023/10/22 03:41:35;;;;;;;4.47;0.80;;;10.30;99.90;;;;;;5049837;28;20721;-58
2023/10/22 03:44:05;;;;;;;6.65;0.98;;;10.30;99.90;;;;;;5049996;28;20213;-58
2023/10/22 03:46:33;;;;;;;8.57;0.85;;;10.20;99.90;;;;;;5047660;28;20241;-58
2023/10/22 03:49:01;;;;;;;7.95;1.00;;;10.30;99.90;;;;;;5050165;28;20210;-58
2023/10/22 03:51:29;;;;;;;2.15;0.88;;;10.20;99.90;;;;;;5048955;28;20659;-59
2023/10/22 03:53:57;;;;;;;3.22;0.88;;;10.20;99.90;;;;;;5049579;28;20232;-59
2023/10/22 03:56:25;;;;;;;5.25;1.30;;;10.20;99.90;;;;;;5046967;28;20210;-59
2023/10/22 03:58:54;;;;;;;4.03;1.02;;;10.20;99.90;;;;;;5049627;28;20221;-59
2023/10/22 04:01:23;;;;;;;4.90;0.98;;;10.20;99.90;;;;;;5049255;28;20841;-58
2023/10/22 04:03:51;;;;;;;5.90;1.00;;;10.20;99.90;;;;;;5045759;28;20241;-58
2023/10/22 04:06:19;;;;;;;2.17;0.90;;;10.20;99.90;;;;;;5047470;28;20249;-58
2023/10/22 04:08:47;;;;;;;3.10;1.10;;;10.20;99.90;;;;;;5048251;28;20206;-58
2023/10/22 04:11:15;;;;;;;3.90;0.80;;;10.20;99.90;;;;;;5048808;28;20304;-58
2023/10/22 04:13:42;;;;;;;5.03;0.82;;;10.20;99.90;;;;;;5051063;28;20620;-57
2023/10/22 04:16:15;;;;;;;5.05;1.00;;;10.20;99.90;;;;;;5048838;28;20234;-58
2023/10/22 04:18:45;;;;;;;4.32;0.85;;;10.20;99.90;;;;;;5048147;28;20305;-57
2023/10/22 04:21:14;;;;;;;2.47;0.85;;;10.20;99.90;;;;;;5050089;28;20225;-57
2023/10/22 04:23:42;;;;;;;3.53;0.80;;;10.30;99.90;;;;;;5048855;28;20206;-59
2023/10/22 04:26:13;;;;;;;3.30;0.88;;;10.30;99.90;;;;;;5048709;28;20209;-59
2023/10/22 04:28:42;;;;;;;7.65;1.00;;;10.40;99.90;;;;;;5047466;28;20268;-57
2023/10/22 04:31:10;;;;;;;11.68;1.38;;;10.40;99.90;;;;;;5048565;28;20666;-58
2023/10/22 04:33:38;;;;;;;5.18;1.23;;;10.40;99.90;;;;;;5048546;28;20312;-58
2023/10/22 04:36:16;;;;;;;4.75;1.13;;;10.50;99.90;;;;;;5048479;28;20210;-59
2023/10/22 04:38:44;;;;;;;8.50;0.90;;;10.50;99.90;;;;;;5047936;28;20206;-59
2023/10/22 04:41:12;;;;;;;4.53;0.85;;;10.50;99.90;;;;;;5048410;28;20226;-59
2023/10/22 04:43:41;;;;;;;4.25;0.95;;;10.50;99.90;;;;;;5048543;28;20206;-58
2023/10/22 04:46:09;;;;;;;3.30;0.80;;;10.60;99.90;;;;;;5047618;28;20755;-58
2023/10/22 04:48:36;;;;;;;4.35;0.95;;;10.60;99.90;;;;;;5048518;28;20218;-58
2023/10/22 04:51:06;;;;;;;3.42;0.80;;;10.60;99.90;;;;;;5047521;28;20245;-58
2023/10/22 04:53:35;;;;;;;4.32;1.33;;;10.60;99.90;;;;;;5048163;28;20205;-58
2023/10/22 04:56:03;;;;;;;4.15;1.23;;;10.60;99.90;;;;;;5048259;28;20205;-59
2023/10/22 04:58:33;;;;;;;10.27;1.00;;;10.60;99.90;;;;;;5045479;28;20655;-58
2023/10/22 05:01:00;;;;;;;5.00;0.90;;;10.60;99.90;;;;;;5048081;28;20226;-59
2023/10/22 05:03:28;;;;;;;4.22;0.80;;;10.50;99.90;;;;;;5048012;28;20305;-59
2023/10/22 05:05:56;;;;;;;3.28;0.90;;;10.50;99.90;;;;;;5046068;28;20209;-58
2023/10/22 05:08:26;;;;;;;3.55;1.00;;;10.60;99.90;;;;;;5046010;28;20210;-59
2023/10/22 05:10:55;;;;;;;5.72;1.00;;;10.60;99.90;;;;;;5047642;28;20308;-58
2023/10/22 05:13:23;;;;;;;4.97;1.20;;;10.60;99.90;;;;;;5048051;28;20202;-57
2023/10/22 05:15:52;;;;;;;7.00;0.63;;;10.70;99.90;;;;;;5047376;28;20762;-58
2023/10/22 05:18:20;;;;;;;5.28;1.10;;;10.70;99.90;;;;;;5046325;28;20640;-59
2023/10/22 05:20:48;;;;;;;4.60;0.90;;;10.70;99.90;;;;;;5046729;28;20227;-58
2023/10/22 05:23:16;;;;;;;5.70;1.15;;;10.80;99.90;;;;;;5047888;28;20237;-59
2023/10/22 05:25:44;;;;;;;2.45;0.95;;;10.80;99.90;;;;;;5047407;28;20289;-58
2023/10/22 05:28:13;;;;;;;3.63;1.27;;;10.90;99.90;;;;;;5047419;28;20649;-58
2023/10/22 05:30:41;;;;;;;2.30;0.90;;;10.90;99.90;;;;;;5045531;28;20223;-59
2023/10/22 05:33:09;;;;;;;4.10;1.00;;;10.90;99.90;;;;;;5047996;28;20293;-58
2023/10/22 05:35:37;;;;;;;5.53;1.35;;;10.90;99.90;;;;;;5047149;28;20277;-58
2023/10/22 05:38:05;;;;;;;7.82;1.15;;;10.90;99.90;;;;;;5047819;28;20252;-58
2023/10/22 05:40:37;;;;;;;3.55;0.80;;;10.90;99.90;;;;;;5043918;28;20647;-57
2023/10/22 05:43:04;;;;;;;6.75;1.10;;;10.90;99.90;;;;;;5047555;28;20210;-59
2023/10/22 05:45:34;;;;;;;3.78;1.33;;;10.90;99.90;;;;;;5047032;28;20198;-59
2023/10/22 05:48:02;;;;;;;3.85;1.10;;;10.90;99.90;;;;;;5047482;28;20690;-59
2023/10/22 05:50:30;;;;;;;5.82;1.02;;;10.90;99.90;;;;;;5044041;28;20234;-59
2023/10/22 05:52:58;;;;;;;4.40;1.00;;;11.00;99.90;;;;;;5041932;28;20255;-59
2023/10/22 05:55:25;;;;;;;4.97;0.82;;;11.00;99.90;;;;;;5050582;28;20241;-60
2023/10/22 05:57:53;;;;;;;6.18;1.17;;;11.00;99.90;;;;;;5050906;28;20807;-58
2023/10/22 06:00:22;;;;;;;5.50;1.20;;;11.10;99.90;;;;;;5047785;28;20321;-60
2023/10/22 06:02:52;;;;;;;7.28;1.20;;;11.10;99.90;;;;;;5053449;28;20655;-60
2023/10/22 06:05:20;;;;;;;3.30;0.98;;;11.10;99.90;;;;;;5053403;28;20222;-60
2023/10/22 06:07:52;;;;;;;7.30;1.45;;;11.20;99.90;;;;;;5050669;28;20210;-60
2023/10/22 06:10:20;;;;;;;6.05;1.73;;;11.20;99.90;;;;;;5053775;28;20331;-60
2023/10/22 06:12:49;;;;;;;8.65;1.48;;;11.20;99.90;;;;;;5050859;28;20613;-60
2023/10/22 06:15:17;;;;;;;10.38;1.35;;;11.30;99.90;;;;;;5050590;28;20233;-60
2023/10/22 06:17:45;;;;;;;5.40;1.13;;;11.20;99.90;;;;;;5053995;28;20691;-59
2023/10/22 06:20:15;;;;;;;7.93;1.23;;;11.30;99.90;;;;;;5052974;28;20737;-60
2023/10/22 06:22:46;;;;;;;3.95;1.08;;;11.30;99.90;;;;;;5051547;28;20206;-59
2023/10/22 06:25:14;;;;;;;7.78;1.10;;;11.40;99.90;;;;;;5050277;28;20202;-60
2023/10/22 06:27:42;;;;;;;6.78;1.25;;;11.40;99.90;;;;;;5045799;28;20220;-60
2023/10/22 06:30:11;;;;;;;8.05;1.33;;;11.40;99.90;;;;;;5053750;28;20556;-60
2023/10/22 06:32:39;;;;;;;17.00;1.98;;;11.50;99.90;;;;;;5053397;28;20202;-60
2023/10/22 06:35:08;;;;;;;7.18;1.17;;;11.40;99.90;;;;;;5049499;28;20309;-60
2023/10/22 06:37:37;;;;;;;6.95;1.00;;;11.50;99.90;;;;;;5050211;28;20250;-60
2023/10/22 06:40:07;;;;;;;5.15;1.30;;;11.50;99.90;;;;;;5049718;28;20230;-60
2023/10/22 06:42:34;;;;;;;4.13;1.10;;;11.60;99.90;;;;;;5050300;28;20380;-59
2023/10/22 06:45:05;;;;;;;9.93;1.25;;;11.60;99.90;;;;;;5049697;28;20206;-59
2023/10/22 06:47:36;;;;;;;8.15;1.45;;;11.70;99.90;;;;;;5045060;28;20755;-60
2023/10/22 06:50:04;;;;;;;9.27;1.30;;;11.70;99.90;;;;;;5045767;28;20209;-60
2023/10/22 06:52:32;;;;;;;7.03;1.38;;;11.70;99.90;;;;;;5046617;28;20293;-60
2023/10/22 06:55:01;;;;;;;6.05;1.10;;;11.80;99.90;;;;;;5053031;28;20316;-60
2023/10/22 06:57:29;;;;;;;4.20;1.30;;;11.80;99.90;;;;;;5049403;28;20213;-60
2023/10/22 06:59:58;;;;;;;9.20;1.33;;;11.90;99.90;;;;;;5053117;28;20280;-60
2023/10/22 07:02:26;;;;;;;4.70;1.50;;;11.90;99.90;;;;;;5046905;28;20206;-60
2023/10/22 07:04:54;;;;;;;5.82;1.15;;;11.90;99.90;;;;;;5047497;28;20217;-60
2023/10/22 07:07:22;;;;;;;9.15;1.40;;;12.00;99.90;;;;;;5053269;28;20233;-59
2023/10/22 07:09:50;;;;;;;5.32;1.60;;;12.10;99.90;;;;;;5053133;28;20301;-60
2023/10/22 07:12:20;;;;;;;7.55;1.38;;;12.10;99.90;;;;;;5049172;28;20213;-60
2023/10/22 07:14:48;;;;;;;8.50;1.30;;;12.20;99.90;;;;;;5049078;28;20214;-60
2023/10/22 07:17:16;;;;;;;8.23;1.58;;;12.30;99.90;;;;;;5049148;28;20209;-60
2023/10/22 07:19:44;;;;;;;5.38;0.95;;;12.40;99.90;;;;;;5049169;28;20233;-64
2023/10/22 07:22:12;;;;;;;6.78;1.08;;;12.50;99.90;;;;;;5052045;28;20218;-60
2023/10/22 07:24:40;;;;;;;3.92;1.38;;;12.50;99.90;;;;;;5049520;28;20601;-60
2023/10/22 07:27:08;;;;;;;9.73;1.50;;;12.60;99.90;;;;;;5048623;28;20640;-60
2023/10/22 07:29:37;;;;;;;12.23;1.48;;;12.60;99.90;;;;;;5052703;28;20206;-60
2023/10/22 07:32:06;;;;;;;11.60;1.30;;;12.70;99.90;;;;;;5052557;28;20272;-60
2023/10/22 07:34:34;;;;;;;5.03;1.20;;;12.70;99.90;;;;;;5045275;28;20390;-60
2023/10/22 07:37:01;;;;;;;5.18;1.20;;;12.80;99.90;;;;;;5051715;28;20258;-60
2023/10/22 07:39:30;;;;;;;11.02;1.23;;;12.80;99.90;;;;;;5048265;28;20622;-59
2023/10/22 07:41:58;;;;;;;9.43;1.15;;;12.90;99.90;;;;;;5048157;28;20234;-60
2023/10/22 07:44:25;;;;;;;12.43;1.55;;;13.00;99.90;;;;;;5048343;28;20267;-60
2023/10/22 07:46:55;;;;;;;10.80;1.20;;;13.00;99.90;;;;;;5052015;28;20202;-59
2023/10/22 07:49:22;;;;;;;7.93;1.60;;;13.10;99.90;;;;;;5052621;28;20229;-59
2023/10/22 07:51:51;;;;;;;4.78;1.23;;;13.20;99.90;;;;;;5051841;28;20264;-60
2023/10/22 07:54:19;;;;;;;7.93;1.90;;;13.30;99.90;;;;;;5051665;28;20233;-59
2023/10/22 07:56:47;;;;;;;10.45;1.90;;;13.40;99.90;;;;;;5050546;28;20222;-59
2023/10/22 07:59:15;;;;;;;10.15;1.58;;;13.50;99.90;;;;;;5052544;28;20221;-59
2023/10/22 08:01:42;;;;;;;4.95;1.42;;;13.70;99.90;;;;;;5051739;28;20296;-59
2023/10/22 08:04:12;;;;;;;5.93;1.33;;;13.80;99.90;;;;;;5043612;28;20252;-60
2023/10/22 08:06:40;;;;;;;10.00;1.50;;;14.00;99.90;;;;;;5048301;28;20221;-59
2023/10/22 08:09:07;;;;;;;12.43;1.73;;;14.00;99.90;;;;;;5047580;28;20744;-60
2023/10/22 08:11:35;;;;;;;8.70;1.40;;;14.10;99.90;;;;;;5047554;28;20218;-59
2023/10/22 08:14:03;;;;;;;7.88;1.30;;;14.20;99.90;;;;;;5051386;28;20209;-60
2023/10/22 08:16:32;;;;;;;9.77;1.45;;;14.20;99.90;;;;;;5047809;28;20309;-59
2023/10/22 08:18:59;;;;;;;13.07;1.50;;;14.20;99.90;;;;;;5050953;28;20224;-60
2023/10/22 08:21:29;;;;;;;8.35;1.50;;;14.10;99.90;;;;;;5050791;28;20228;-60
2023/10/22 08:23:56;;;;;;;4.32;1.13;;;14.10;99.90;;;;;;5051451;28;20586;-60
2023/10/22 08:26:25;;;;;;;7.78;1.45;;;14.10;99.90;;;;;;5044591;28;20675;-60
2023/10/22 08:28:53;;;;;;;10.82;1.13;;;14.10;99.90;;;;;;5049799;28;20297;-60
2023/10/22 08:31:21;;;;;;;9.90;1.50;;;14.10;99.90;;;;;;5051386;28;20308;-59
2023/10/22 08:33:49;;;;;;;7.35;1.50;;;14.10;99.90;;;;;;5051393;28;20320;-59
2023/10/22 08:36:17;;;;;;;6.72;1.35;;;14.10;99.90;;;;;;5045875;28;20296;-60
2023/10/22 08:38:46;;;;;;;7.70;1.33;;;14.00;99.90;;;;;;5044005;28;20799;-59
2023/10/22 08:41:18;;;;;;;5.15;1.00;;;14.00;99.90;;;;;;5046672;28;20606;-60
2023/10/22 08:43:46;;;;;;;4.13;1.35;;;13.90;99.90;;;;;;5051373;28;20694;-60
2023/10/22 08:46:13;;;;;;;9.80;1.65;;;13.90;99.90;;;;;;5050236;28;20294;-59
2023/10/22 08:48:41;;;;;;;14.68;1.52;;;13.90;99.90;;;;;;5043516;28;20293;-60
2023/10/22 08:51:10;;;;;;;6.78;1.33;;;13.80;99.90;;;;;;5051118;28;20238;-59
2023/10/22 08:53:38;;;;;;;3.97;1.20;;;13.80;99.90;;;;;;5051381;28;20233;-59
2023/10/22 08:56:07;;;;;;;7.10;1.70;;;13.80;99.90;;;;;;5046102;28;20775;-59
2023/10/22 08:58:35;;;;;;;10.30;1.10;;;13.80;99.90;;;;;;5048103;28;20207;-59
2023/10/22 09:01:03;;;;;;;8.68;1.45;;;13.80;99.90;;;;;;5044765;28;20261;-59
2023/10/22 09:03:32;;;;;;;7.05;1.10;;;13.80;99.90;;;;;;5046366;28;20214;-59
2023/10/22 09:06:01;;;;;;;10.13;1.75;;;13.80;99.90;;;;;;5046187;28;20205;-59
2023/10/22 09:08:41;;;;;;;6.85;1.08;;;13.90;99.90;;;;;;5043644;28;20206;-59
2023/10/22 09:11:14;;;;;;;8.35;1.55;;;13.90;99.90;;;;;;5037956;28;20693;-60
2023/10/22 09:13:42;;;;;;;7.90;1.40;;;13.90;99.90;;;;;;5046233;28;20237;-60
2023/10/22 09:16:10;;;;;;;7.55;1.25;;;14.00;99.90;;;;;;5047226;28;21033;-60
2023/10/22 09:18:47;;;;;;;7.85;1.52;;;14.00;99.90;;;;;;5047020;28;20203;-63
2023/10/22 09:21:14;;;;;;;7.22;1.23;;;14.10;99.90;;;;;;5050780;28;20279;-60
2023/10/22 09:23:43;;;;;;;7.53;1.50;;;14.10;99.90;;;;;;5047211;28;20293;-59
2023/10/22 09:26:11;;;;;;;6.90;1.52;;;14.20;99.90;;;;;;5045566;28;20238;-60
2023/10/22 09:28:40;;;;;;;6.30;1.25;;;14.20;99.90;;;;;;5050512;28;20566;-60
2023/10/22 09:31:08;;;;;;;7.68;1.30;;;14.30;99.90;;;;;;5049656;28;20331;-60
2023/10/22 09:33:36;;;;;;;11.73;1.30;;;14.40;99.90;;;;;;5050049;28;20197;-60
2023/10/22 09:36:05;;;;;;;8.70;1.20;;;14.40;99.90;;;;;;5054690;28;20309;-59
2023/10/22 09:38:43;;;;;;;8.07;1.70;;;14.40;99.90;;;;;;5046708;28;20203;-59
2023/10/22 09:41:12;;;;;;;7.90;1.50;;;14.40;99.90;;;;;;5049842;28;20225;-60
2023/10/22 09:43:41;;;;;;;6.93;1.45;;;14.40;99.90;;;;;;5054903;28;20288;-60
2023/10/22 09:46:09;;;;;;;9.25;1.30;;;14.50;99.90;;;;;;5054272;28;20205;-60
2023/10/22 09:48:37;;;;;;;7.97;1.10;;;14.60;99.90;;;;;;5046335;28;20203;-59
2023/10/22 09:51:06;;;;;;;9.65;1.27;;;14.60;99.90;;;;;;5053490;28;20292;-59
2023/10/22 09:53:38;;;;;;;9.13;1.90;;;14.60;99.90;;;;;;5049599;28;20206;-60
2023/10/22 09:56:07;;;;;;;7.32;1.50;;;14.60;99.90;;;;;;5049188;28;20209;-60
2023/10/22 09:58:39;;;;;;;13.10;1.33;;;14.60;99.90;;;;;;5050917;28;20276;-59
2023/10/22 10:01:11;;;;;;;10.75;1.15;;;14.60;99.90;;;;;;5048902;28;20228;-60
2023/10/22 10:03:40;;;;;;;6.05;1.70;;;14.60;99.90;;;;;;5048707;28;20559;-60
2023/10/22 10:06:08;;;;;;;5.05;1.30;;;14.60;99.90;;;;;;5048762;28;20621;-60
2023/10/22 10:08:37;;;;;;;7.50;1.52;;;14.60;99.90;;;;;;5045314;28;20194;-60
2023/10/22 10:11:05;;;;;;;9.55;1.45;;;14.60;99.90;;;;;;5047950;28;20227;-60
2023/10/22 10:13:35;;;;;;;11.10;1.80;;;14.60;99.90;;;;;;5053417;28;20226;-60
2023/10/22 10:16:03;;;;;;;5.05;1.27;;;14.60;99.90;;;;;;5046795;28;20226;-60
2023/10/22 10:19:04;;;;;;;3.67;0.90;;;14.60;99.90;;;;;;5044301;28;20230;-59
2023/10/22 10:21:45;;;;;;;7.60;1.65;;;14.70;99.90;;;;;;5043110;28;20226;-59
2023/10/22 10:24:20;;;;;;;4.32;1.30;;;14.80;99.90;;;;;;5049524;28;20233;-59
2023/10/22 10:26:50;;;;;;;5.70;1.05;;;14.90;99.90;;;;;;5048073;28;20226;-59
2023/10/22 10:29:19;;;;;;;6.07;1.38;;;15.10;99.90;;;;;;5048642;28;20585;-59
2023/10/22 10:31:48;;;;;;;5.47;1.30;;;15.20;99.90;;;;;;5048233;28;20228;-59
2023/10/22 10:34:26;;;;;;;8.35;1.52;;;15.30;99.90;;;;;;5050961;28;20679;-59
2023/10/22 10:36:54;;;;;;;7.90;1.45;;;15.50;99.90;;;;;;5045245;28;20222;-59
2023/10/22 10:39:42;;;;;;;2.40;1.00;;;15.70;99.90;;;;;;5048212;28;20217;-59
2023/10/22 10:42:10;;;;;;;8.40;1.95;;;15.90;99.90;;;;;;5052123;28;20226;-59
2023/10/22 10:45:03;;;;;;;7.53;1.20;;;16.00;99.90;;;;;;5048624;28;20209;-59
2023/10/22 10:47:32;;;;;;;5.95;1.58;;;16.20;99.90;;;;;;5042247;28;20265;-59
2023/10/22 10:50:03;;;;;;;7.00;1.52;;;16.20;99.90;;;;;;5050336;28;20210;-59
2023/10/22 10:52:32;;;;;;;3.50;1.00;;;16.20;99.90;;;;;;5053319;28;20202;-59
2023/10/22 10:55:01;;;;;;;6.00;1.40;;;16.10;99.90;;;;;;5051447;28;20233;-59
2023/10/22 10:57:35;;;;;;;7.93;1.83;;;16.10;99.90;;;;;;5051432;28;20323;-59
2023/10/22 11:00:05;;;;;;;7.47;1.77;;;16.10;99.90;;;;;;5053330;28;20286;-58
2023/10/22 11:02:42;;;;;;;11.55;1.65;;;16.10;99.90;;;;;;5053266;28;20217;-58
2023/10/22 11:05:11;;;;;;;4.70;1.30;;;16.20;99.90;;;;;;5052622;28;20202;-59
2023/10/22 11:07:39;;;;;;;9.93;1.65;;;16.20;99.90;;;;;;5050976;28;20210;-59
2023/10/22 11:10:08;;;;;;;8.02;1.60;;;16.30;99.90;;;;;;5052198;28;20676;-59
2023/10/22 11:12:37;;;;;;;3.53;0.95;;;16.30;99.90;;;;;;5052663;28;20205;-59
2023/10/22 11:15:07;;;;;;;8.82;1.55;;;16.30;99.90;;;;;;5052092;28;20300;-60
2023/10/22 11:17:36;;;;;;;5.10;1.00;;;16.20;99.90;;;;;;5051716;28;20221;-59
2023/10/22 11:20:05;;;;;;;7.85;1.17;;;16.10;99.90;;;;;;5052039;28;20214;-59
2023/10/22 11:22:35;;;;;;;12.70;2.25;;;16.10;99.90;;;;;;5052311;28;20233;-59
2023/10/22 11:25:04;;;;;;;8.52;1.42;;;16.10;99.90;;;;;;5052020;28;20213;-59
2023/10/22 11:27:32;;;;;;;5.57;1.45;;;16.20;99.90;;;;;;5051881;28;20205;-58
2023/10/22 11:30:01;;;;;;;5.22;1.27;;;16.20;99.90;;;;;;5051151;28;20760;-59
2023/10/22 11:32:28;;;;;;;6.88;1.65;;;16.20;99.90;;;;;;5052288;28;20206;-58
2023/10/22 11:34:59;;;;;;;7.20;1.60;;;16.20;99.90;;;;;;5052245;28;20210;-58
2023/10/22 11:37:36;;;;;;;9.20;1.35;;;16.20;99.90;;;;;;5047938;28;20703;-59
2023/10/22 11:40:28;;;;;;;8.80;1.40;;;16.20;99.90;;;;;;5052072;28;20216;-59
2023/10/22 11:42:58;;;;;;;8.60;1.65;;;16.40;99.90;;;;;;5052361;28;20605;-58
2023/10/22 11:45:29;;;;;;;7.60;1.50;;;16.50;99.90;;;;;;5052190;28;20655;-58
2023/10/22 11:48:13;;;;;;;8.10;1.77;;;16.80;99.90;;;;;;5052424;28;20205;-59
2023/10/22 11:50:44;;;;;;;9.52;1.42;;;17.00;99.90;;;;;;5051626;28;20237;-59
2023/10/22 11:53:11;;;;;;;11.93;1.65;;;17.10;99.90;;;;;;5052606;28;20214;-58
2023/10/22 11:55:45;;;;;;;7.22;1.50;;;17.20;99.90;;;;;;5052243;28;20198;-58
2023/10/22 11:58:17;;;;;;;8.10;1.67;;;17.30;99.90;;;;;;5052328;28;20244;-61
2023/10/22 12:00:45;;;;;;;7.20;1.30;;;17.40;99.90;;;;;;5052140;28;20222;-59
2023/10/22 12:03:13;;;;;;;6.65;1.48;;;17.50;99.90;;;;;;5052276;28;20665;-59
2023/10/22 12:05:41;;;;;;;9.20;1.52;;;17.50;99.90;;;;;;5052350;28;20237;-58
2023/10/22 12:08:09;;;;;;;10.95;1.92;;;17.50;99.90;;;;;;5052161;28;20208;-59
2023/10/22 12:10:37;;;;;;;7.47;1.48;;;17.30;99.90;;;;;;5051754;28;20229;-58
2023/10/22 12:13:06;;;;;;;8.18;1.42;;;17.20;99.90;;;;;;5052199;28;20209;-58
2023/10/22 12:15:35;;;;;;;9.13;2.03;;;17.00;99.90;;;;;;5052015;28;20249;-58
2023/10/22 12:18:04;;;;;;;9.90;1.40;;;16.90;99.90;;;;;;5051836;28;20222;-59
2023/10/22 12:20:32;;;;;;;10.05;1.85;;;16.80;99.90;;;;;;5051843;28;20225;-58
2023/10/22 12:23:00;;;;;;;8.60;1.77;;;16.70;99.90;;;;;;5051454;28;20206;-59
2023/10/22 12:25:30;;;;;;;11.52;1.88;;;16.70;99.90;;;;;;5051560;28;20646;-59
2023/10/22 12:27:58;;;;;;;4.95;1.50;;;16.60;99.90;;;;;;5051671;28;20841;-58
2023/10/22 12:30:28;;;;;;;10.63;1.50;;;16.70;99.90;;;;;;5051743;28;20283;-59
2023/10/22 12:32:56;;;;;;;8.48;1.33;;;16.70;99.90;;;;;;5051612;28;20231;-59
2023/10/22 12:35:24;;;;;;;4.97;1.58;;;16.80;99.90;;;;;;5051518;28;20236;-59
2023/10/22 12:37:52;;;;;;;9.23;1.58;;;16.90;99.90;;;;;;5051374;28;20209;-58
2023/10/22 12:40:20;;;;;;;7.68;1.98;;;16.90;99.90;;;;;;5043410;28;20225;-58
2023/10/22 12:42:48;;;;;;;7.65;1.70;;;17.00;99.90;;;;;;5051703;28;20244;-58
2023/10/22 12:45:16;;;;;;;8.80;1.60;;;16.90;99.90;;;;;;5051300;28;20308;-58
2023/10/22 12:47:45;;;;;;;7.40;1.20;;;16.90;99.90;;;;;;5051367;28;20316;-59
2023/10/22 12:50:13;;;;;;;6.93;1.45;;;16.80;99.90;;;;;;5050999;28;20237;-58
2023/10/22 12:52:41;;;;;;;4.53;1.40;;;16.80;99.90;;;;;;5051629;28;20202;-59
2023/10/22 12:55:09;;;;;;;5.65;1.40;;;16.80;99.90;;;;;;5051011;28;20248;-58